sensor_id;sensor_type;location;lat;lon;timestamp;temperature;humidity
7516;DHT22;3799;47.184;8.538;2023-04-12T00:01:26;8.80;99.90
7516;DHT22;3799;47.184;8.538;2023-04-12T00:03:53;8.50;99.90
7516;DHT22;3799;47.184;8.538;2023-04-12T00:06:21;8.60;99.90
7516;DHT22;3799;47.184;8.538;2023-04-12T00:08:53;8.40;99.90
7516;DHT22;3799;47.184;8.538;2023-04-12T00:11:20;8.50;99.90
7516;DHT22;3799;47.184;8.538;2023-04-12T00:13:48;8.50;99.90
7516;DHT22;3799;47.184;8.538;2023-04-12T00:16:29;8.60;99.90
7516;DHT22;3799;47.184;8.538;2023-04-12T00:18:57;8.40;99.90
7516;DHT22;3799;47.184;8.538;2023-04-12T00:21:24;8.40;99.90
7516;DHT22;3799;47.184;8.538;2023-04-12T00:23:54;8.50;99.90
7516;DHT22;3799;47.184;8.538;2023-04-12T00:26:23;8.50;99.90
7516;DHT22;3799;47.184;8.538;2023-04-12T00:28:53;8.40;99.90
7516;DHT22;3799;47.184;8.538;2023-04-12T00:31:20;8.40;99.90
7516;DHT22;3799;47.184;8.538;2023-04-12T00:33:48;8.50;99.90
7516;DHT22;3799;47.184;8.538;2023-04-12T00:36:16;8.40;99.90
7516;DHT22;3799;47.184;8.538;2023-04-12T00:38:43;8.50;99.90
7516;DHT22;3799;47.184;8.538;2023-04-12T00:41:26;8.50;99.90
7516;DHT22;3799;47.184;8.538;2023-04-12T00:43:54;8.70;99.90
7516;DHT22;3799;47.184;8.538;2023-04-12T00:46:22;8.60;99.90
7516;DHT22;3799;47.184;8.538;2023-04-12T00:48:50;8.70;99.90
7516;DHT22;3799;47.184;8.538;2023-04-12T00:51:19;8.70;99.90
7516;DHT22;3799;47.184;8.538;2023-04-12T00:53:48;8.50;99.90
7516;DHT22;3799;47.184;8.538;2023-04-12T00:56:15;8.60;99.90
7516;DHT22;3799;47.184;8.538;2023-04-12T00:58:45;8.50;99.90
7516;DHT22;3799;47.184;8.538;2023-04-12T01:01:12;8.40;99.90
7516;DHT22;3799;47.184;8.538;2023-04-12T01:03:43;8.40;99.90
7516;DHT22;3799;47.184;8.538;2023-04-12T01:12:07;8.40;99.90
7516;DHT22;3799;47.184;8.538;2023-04-12T01:15:23;8.40;99.90
7516;DHT22;3799;47.184;8.538;2023-04-12T01:17:48;8.40;99.90
7516;DHT22;3799;47.184;8.538;2023-04-12T01:20:18;8.40;99.90
7516;DHT22;3799;47.184;8.538;2023-04-12T01:26:09;8.70;99.90
7516;DHT22;3799;47.184;8.538;2023-04-12T01:28:41;8.50;99.90
7516;DHT22;3799;47.184;8.538;2023-04-12T01:31:10;8.50;99.90
7516;DHT22;3799;47.184;8.538;2023-04-12T01:33:39;8.40;99.90
7516;DHT22;3799;47.184;8.538;2023-04-12T01:36:12;8.50;99.90
7516;DHT22;3799;47.184;8.538;2023-04-12T01:38:42;8.70;99.90
7516;DHT22;3799;47.184;8.538;2023-04-12T01:41:10;8.40;99.90
7516;DHT22;3799;47.184;8.538;2023-04-12T01:43:46;8.40;99.90
7516;DHT22;3799;47.184;8.538;2023-04-12T01:46:15;8.70;99.90
7516;DHT22;3799;47.184;8.538;2023-04-12T01:48:52;8.30;99.90
7516;DHT22;3799;47.184;8.538;2023-04-12T01:54:21;8.40;99.90
7516;DHT22;3799;47.184;8.538;2023-04-12T01:56:57;8.40;99.90
7516;DHT22;3799;47.184;8.538;2023-04-12T01:59:29;8.50;99.90
7516;DHT22;3799;47.184;8.538;2023-04-12T02:01:58;8.40;99.90
7516;DHT22;3799;47.184;8.538;2023-04-12T02:04:26;8.20;99.90
7516;DHT22;3799;47.184;8.538;2023-04-12T02:06:55;8.40;99.90
7516;DHT22;3799;47.184;8.538;2023-04-12T02:09:22;8.50;99.90
7516;DHT22;3799;47.184;8.538;2023-04-12T02:11:50;8.30;99.90
7516;DHT22;3799;47.184;8.538;2023-04-12T02:14:17;8.50;99.90
7516;DHT22;3799;47.184;8.538;2023-04-12T02:16:44;8.50;99.90
7516;DHT22;3799;47.184;8.538;2023-04-12T02:19:13;8.20;99.90
7516;DHT22;3799;47.184;8.538;2023-04-12T02:21:41;8.50;99.90
7516;DHT22;3799;47.184;8.538;2023-04-12T02:24:12;8.40;99.90
7516;DHT22;3799;47.184;8.538;2023-04-12T02:26:39;8.40;99.90
7516;DHT22;3799;47.184;8.538;2023-04-12T02:29:08;8.50;99.90
7516;DHT22;3799;47.184;8.538;2023-04-12T02:31:36;8.50;99.90
7516;DHT22;3799;47.184;8.538;2023-04-12T02:34:05;8.40;99.90
7516;DHT22;3799;47.184;8.538;2023-04-12T02:36:33;8.50;99.90
7516;DHT22;3799;47.184;8.538;2023-04-12T02:39:04;8.40;99.90
7516;DHT22;3799;47.184;8.538;2023-04-12T02:41:32;8.50;99.90
7516;DHT22;3799;47.184;8.538;2023-04-12T02:43:59;8.40;99.90
7516;DHT22;3799;47.184;8.538;2023-04-12T02:46:26;8.40;99.90
7516;DHT22;3799;47.184;8.538;2023-04-12T02:48:53;8.40;99.90
7516;DHT22;3799;47.184;8.538;2023-04-12T02:51:21;8.60;99.90
7516;DHT22;3799;47.184;8.538;2023-04-12T02:53:52;8.40;99.90
7516;DHT22;3799;47.184;8.538;2023-04-12T02:56:20;8.50;99.90
7516;DHT22;3799;47.184;8.538;2023-04-12T02:58:48;8.20;99.90
7516;DHT22;3799;47.184;8.538;2023-04-12T03:01:15;8.50;99.90
7516;DHT22;3799;47.184;8.538;2023-04-12T03:03:53;8.20;99.90
7516;DHT22;3799;47.184;8.538;2023-04-12T03:06:34;8.60;99.90
7516;DHT22;3799;47.184;8.538;2023-04-12T03:09:02;8.40;99.90
7516;DHT22;3799;47.184;8.538;2023-04-12T03:11:29;8.50;99.90
7516;DHT22;3799;47.184;8.538;2023-04-12T03:13:59;8.50;99.90
7516;DHT22;3799;47.184;8.538;2023-04-12T03:16:28;8.40;99.90
7516;DHT22;3799;47.184;8.538;2023-04-12T03:18:56;8.50;99.90
7516;DHT22;3799;47.184;8.538;2023-04-12T03:21:35;8.50;99.90
7516;DHT22;3799;47.184;8.538;2023-04-12T03:24:18;8.40;99.90
7516;DHT22;3799;47.184;8.538;2023-04-12T03:26:45;8.50;99.90
7516;DHT22;3799;47.184;8.538;2023-04-12T03:29:13;8.50;99.90
7516;DHT22;3799;47.184;8.538;2023-04-12T03:31:42;8.70;99.90
7516;DHT22;3799;47.184;8.538;2023-04-12T03:34:09;8.70;99.90
7516;DHT22;3799;47.184;8.538;2023-04-12T03:36:43;8.80;99.90
7516;DHT22;3799;47.184;8.538;2023-04-12T03:39:10;8.80;99.90
7516;DHT22;3799;47.184;8.538;2023-04-12T03:41:37;8.40;99.90
7516;DHT22;3799;47.184;8.538;2023-04-12T03:44:05;8.60;99.90
7516;DHT22;3799;47.184;8.538;2023-04-12T03:46:37;8.60;99.90
7516;DHT22;3799;47.184;8.538;2023-04-12T03:49:10;8.70;99.90
7516;DHT22;3799;47.184;8.538;2023-04-12T03:51:38;8.60;99.90
7516;DHT22;3799;47.184;8.538;2023-04-12T03:54:16;8.70;99.90
7516;DHT22;3799;47.184;8.538;2023-04-12T03:56:44;8.70;99.90
7516;DHT22;3799;47.184;8.538;2023-04-12T03:59:12;8.60;99.90
7516;DHT22;3799;47.184;8.538;2023-04-12T04:01:41;8.70;99.90
7516;DHT22;3799;47.184;8.538;2023-04-12T04:04:09;8.60;99.90
7516;DHT22;3799;47.184;8.538;2023-04-12T04:06:44;8.60;99.90
7516;DHT22;3799;47.184;8.538;2023-04-12T04:09:12;8.70;99.90
7516;DHT22;3799;47.184;8.538;2023-04-12T04:11:39;8.60;99.90
7516;DHT22;3799;47.184;8.538;2023-04-12T04:14:07;8.70;99.90
7516;DHT22;3799;47.184;8.538;2023-04-12T04:16:34;8.80;99.90
7516;DHT22;3799;47.184;8.538;2023-04-12T04:19:03;8.60;99.90
7516;DHT22;3799;47.184;8.538;2023-04-12T04:21:32;8.80;99.90
7516;DHT22;3799;47.184;8.538;2023-04-12T04:23:59;8.50;99.90
7516;DHT22;3799;47.184;8.538;2023-04-12T04:26:27;8.50;99.90
7516;DHT22;3799;47.184;8.538;2023-04-12T04:29:00;8.70;99.90
7516;DHT22;3799;47.184;8.538;2023-04-12T04:31:28;8.70;99.90
7516;DHT22;3799;47.184;8.538;2023-04-12T04:34:03;8.70;99.90
7516;DHT22;3799;47.184;8.538;2023-04-12T04:36:36;8.90;99.90
7516;DHT22;3799;47.184;8.538;2023-04-12T04:39:03;8.60;99.90
7516;DHT22;3799;47.184;8.538;2023-04-12T04:41:31;8.70;99.90
7516;DHT22;3799;47.184;8.538;2023-04-12T04:44:06;8.80;99.90
7516;DHT22;3799;47.184;8.538;2023-04-12T04:46:36;8.90;99.90
7516;DHT22;3799;47.184;8.538;2023-04-12T04:49:05;8.70;99.90
7516;DHT22;3799;47.184;8.538;2023-04-12T04:51:33;8.70;99.90
7516;DHT22;3799;47.184;8.538;2023-04-12T04:54:01;9.10;99.90
7516;DHT22;3799;47.184;8.538;2023-04-12T04:56:29;8.70;99.90
7516;DHT22;3799;47.184;8.538;2023-04-12T04:58:59;8.70;99.90
7516;DHT22;3799;47.184;8.538;2023-04-12T05:01:28;8.90;99.90
7516;DHT22;3799;47.184;8.538;2023-04-12T05:03:56;9.00;99.90
7516;DHT22;3799;47.184;8.538;2023-04-12T05:06:24;8.80;99.90
7516;DHT22;3799;47.184;8.538;2023-04-12T05:08:52;8.90;99.90
7516;DHT22;3799;47.184;8.538;2023-04-12T05:11:19;8.80;99.90
7516;DHT22;3799;47.184;8.538;2023-04-12T05:13:47;8.80;99.90
7516;DHT22;3799;47.184;8.538;2023-04-12T05:16:15;8.60;99.90
7516;DHT22;3799;47.184;8.538;2023-04-12T05:18:43;8.70;99.90
7516;DHT22;3799;47.184;8.538;2023-04-12T05:21:11;8.80;99.90
7516;DHT22;3799;47.184;8.538;2023-04-12T05:23:46;8.70;99.90
7516;DHT22;3799;47.184;8.538;2023-04-12T05:26:13;9.00;99.90
7516;DHT22;3799;47.184;8.538;2023-04-12T05:28:41;8.90;99.90
7516;DHT22;3799;47.184;8.538;2023-04-12T05:31:09;8.60;99.90
7516;DHT22;3799;47.184;8.538;2023-04-12T05:33:36;8.70;99.90
7516;DHT22;3799;47.184;8.538;2023-04-12T05:36:04;8.80;99.90
7516;DHT22;3799;47.184;8.538;2023-04-12T05:38:32;9.00;99.90
7516;DHT22;3799;47.184;8.538;2023-04-12T05:40:59;8.60;99.90
7516;DHT22;3799;47.184;8.538;2023-04-12T05:43:30;8.90;99.90
7516;DHT22;3799;47.184;8.538;2023-04-12T05:45:59;8.90;99.90
7516;DHT22;3799;47.184;8.538;2023-04-12T05:48:26;8.90;99.90
7516;DHT22;3799;47.184;8.538;2023-04-12T05:50:53;8.90;99.90
7516;DHT22;3799;47.184;8.538;2023-04-12T05:53:21;8.80;99.90
7516;DHT22;3799;47.184;8.538;2023-04-12T05:55:49;8.80;99.90
7516;DHT22;3799;47.184;8.538;2023-04-12T05:58:17;8.90;99.90
7516;DHT22;3799;47.184;8.538;2023-04-12T06:00:44;8.70;99.90
7516;DHT22;3799;47.184;8.538;2023-04-12T06:03:12;8.80;99.90
7516;DHT22;3799;47.184;8.538;2023-04-12T06:05:40;9.20;99.90
7516;DHT22;3799;47.184;8.538;2023-04-12T06:08:16;9.20;99.90
7516;DHT22;3799;47.184;8.538;2023-04-12T06:10:44;9.10;99.90
7516;DHT22;3799;47.184;8.538;2023-04-12T06:13:11;9.10;99.90
7516;DHT22;3799;47.184;8.538;2023-04-12T06:15:39;9.40;99.90
7516;DHT22;3799;47.184;8.538;2023-04-12T06:18:07;9.30;99.90
7516;DHT22;3799;47.184;8.538;2023-04-12T06:20:38;9.10;99.90
7516;DHT22;3799;47.184;8.538;2023-04-12T06:23:06;9.40;99.90
7516;DHT22;3799;47.184;8.538;2023-04-12T06:25:36;9.70;99.90
7516;DHT22;3799;47.184;8.538;2023-04-12T06:28:03;9.70;99.90
7516;DHT22;3799;47.184;8.538;2023-04-12T06:30:31;9.70;99.90
7516;DHT22;3799;47.184;8.538;2023-04-12T06:32:58;9.60;99.90
7516;DHT22;3799;47.184;8.538;2023-04-12T06:35:37;9.80;99.90
7516;DHT22;3799;47.184;8.538;2023-04-12T06:38:05;9.90;99.90
7516;DHT22;3799;47.184;8.538;2023-04-12T06:40:32;9.80;99.90
7516;DHT22;3799;47.184;8.538;2023-04-12T06:42:59;9.90;99.90
7516;DHT22;3799;47.184;8.538;2023-04-12T06:45:27;9.70;99.90
7516;DHT22;3799;47.184;8.538;2023-04-12T06:47:54;10.10;99.90
7516;DHT22;3799;47.184;8.538;2023-04-12T06:50:24;9.90;99.90
7516;DHT22;3799;47.184;8.538;2023-04-12T06:52:52;9.90;99.90
7516;DHT22;3799;47.184;8.538;2023-04-12T06:55:20;9.90;99.90
7516;DHT22;3799;47.184;8.538;2023-04-12T06:57:48;10.20;99.90
7516;DHT22;3799;47.184;8.538;2023-04-12T07:00:19;10.20;99.90
7516;DHT22;3799;47.184;8.538;2023-04-12T07:02:46;10.10;99.90
7516;DHT22;3799;47.184;8.538;2023-04-12T07:05:14;10.50;99.90
7516;DHT22;3799;47.184;8.538;2023-04-12T07:07:42;10.40;99.90
7516;DHT22;3799;47.184;8.538;2023-04-12T07:10:10;10.10;99.90
7516;DHT22;3799;47.184;8.538;2023-04-12T07:12:37;10.50;99.90
7516;DHT22;3799;47.184;8.538;2023-04-12T07:15:06;10.60;99.90
7516;DHT22;3799;47.184;8.538;2023-04-12T07:17:34;10.50;99.90
7516;DHT22;3799;47.184;8.538;2023-04-12T07:20:03;10.60;99.90
7516;DHT22;3799;47.184;8.538;2023-04-12T07:22:30;10.70;99.90
7516;DHT22;3799;47.184;8.538;2023-04-12T07:24:57;10.80;99.90
7516;DHT22;3799;47.184;8.538;2023-04-12T07:27:25;11.00;99.90
7516;DHT22;3799;47.184;8.538;2023-04-12T07:29:52;11.30;99.90
7516;DHT22;3799;47.184;8.538;2023-04-12T07:32:20;11.30;99.90
7516;DHT22;3799;47.184;8.538;2023-04-12T07:34:47;11.30;99.90
7516;DHT22;3799;47.184;8.538;2023-04-12T07:37:15;11.30;99.90
7516;DHT22;3799;47.184;8.538;2023-04-12T07:39:44;11.60;99.90
7516;DHT22;3799;47.184;8.538;2023-04-12T07:42:12;11.70;99.90
7516;DHT22;3799;47.184;8.538;2023-04-12T07:44:39;11.60;99.90
7516;DHT22;3799;47.184;8.538;2023-04-12T07:47:07;11.70;99.90
7516;DHT22;3799;47.184;8.538;2023-04-12T07:49:35;12.10;99.90
7516;DHT22;3799;47.184;8.538;2023-04-12T07:52:02;12.00;99.90
7516;DHT22;3799;47.184;8.538;2023-04-12T07:54:30;12.20;99.90
7516;DHT22;3799;47.184;8.538;2023-04-12T07:56:59;12.30;99.90
7516;DHT22;3799;47.184;8.538;2023-04-12T07:59:26;12.10;99.90
7516;DHT22;3799;47.184;8.538;2023-04-12T08:01:54;12.00;99.90
7516;DHT22;3799;47.184;8.538;2023-04-12T08:04:22;12.40;99.90
7516;DHT22;3799;47.184;8.538;2023-04-12T08:06:50;12.50;99.90
7516;DHT22;3799;47.184;8.538;2023-04-12T08:09:19;12.40;99.90
7516;DHT22;3799;47.184;8.538;2023-04-12T08:11:46;12.40;99.90
7516;DHT22;3799;47.184;8.538;2023-04-12T08:14:13;12.30;99.90
7516;DHT22;3799;47.184;8.538;2023-04-12T08:16:41;12.30;99.90
7516;DHT22;3799;47.184;8.538;2023-04-12T08:19:09;12.80;99.90
7516;DHT22;3799;47.184;8.538;2023-04-12T08:21:36;12.80;99.90
7516;DHT22;3799;47.184;8.538;2023-04-12T08:24:04;12.80;99.90
7516;DHT22;3799;47.184;8.538;2023-04-12T08:26:32;13.00;99.90
7516;DHT22;3799;47.184;8.538;2023-04-12T08:28:59;13.00;99.90
7516;DHT22;3799;47.184;8.538;2023-04-12T08:31:27;13.00;99.90
7516;DHT22;3799;47.184;8.538;2023-04-12T08:33:55;13.30;99.90
7516;DHT22;3799;47.184;8.538;2023-04-12T08:36:23;13.10;99.90
7516;DHT22;3799;47.184;8.538;2023-04-12T08:38:51;13.00;99.90
7516;DHT22;3799;47.184;8.538;2023-04-12T08:41:19;13.20;99.90
7516;DHT22;3799;47.184;8.538;2023-04-12T08:43:47;13.50;99.90
7516;DHT22;3799;47.184;8.538;2023-04-12T08:46:15;13.70;99.90
7516;DHT22;3799;47.184;8.538;2023-04-12T08:48:45;13.60;99.90
7516;DHT22;3799;47.184;8.538;2023-04-12T08:51:17;13.50;99.90
7516;DHT22;3799;47.184;8.538;2023-04-12T08:53:45;13.60;99.90
7516;DHT22;3799;47.184;8.538;2023-04-12T08:56:13;13.60;99.90
7516;DHT22;3799;47.184;8.538;2023-04-12T08:58:44;13.90;99.90
7516;DHT22;3799;47.184;8.538;2023-04-12T09:01:14;13.70;99.90
7516;DHT22;3799;47.184;8.538;2023-04-12T09:03:42;14.10;99.90
7516;DHT22;3799;47.184;8.538;2023-04-12T09:06:11;14.30;99.90
7516;DHT22;3799;47.184;8.538;2023-04-12T09:08:53;14.30;99.90
7516;DHT22;3799;47.184;8.538;2023-04-12T09:13:50;14.40;99.90
7516;DHT22;3799;47.184;8.538;2023-04-12T09:16:33;14.60;99.90
7516;DHT22;3799;47.184;8.538;2023-04-12T09:19:03;14.90;99.90
7516;DHT22;3799;47.184;8.538;2023-04-12T09:21:31;15.00;99.90
7516;DHT22;3799;47.184;8.538;2023-04-12T09:24:06;15.00;99.90
7516;DHT22;3799;47.184;8.538;2023-04-12T09:26:40;15.40;99.90
7516;DHT22;3799;47.184;8.538;2023-04-12T09:29:22;15.50;99.90
7516;DHT22;3799;47.184;8.538;2023-04-12T09:32:03;15.80;99.90
7516;DHT22;3799;47.184;8.538;2023-04-12T09:34:32;15.60;99.00
7516;DHT22;3799;47.184;8.538;2023-04-12T09:37:17;15.80;96.40
7516;DHT22;3799;47.184;8.538;2023-04-12T09:39:44;16.20;95.30
7516;DHT22;3799;47.184;8.538;2023-04-12T09:42:12;16.30;93.00
7516;DHT22;3799;47.184;8.538;2023-04-12T09:45:00;16.10;93.20
7516;DHT22;3799;47.184;8.538;2023-04-12T09:47:38;16.70;92.30
7516;DHT22;3799;47.184;8.538;2023-04-12T09:50:07;16.40;92.60
7516;DHT22;3799;47.184;8.538;2023-04-12T09:52:38;16.20;92.80
7516;DHT22;3799;47.184;8.538;2023-04-12T09:55:09;16.50;91.40
7516;DHT22;3799;47.184;8.538;2023-04-12T09:57:41;16.60;90.70
7516;DHT22;3799;47.184;8.538;2023-04-12T10:00:10;16.50;90.00
7516;DHT22;3799;47.184;8.538;2023-04-12T10:02:46;16.60;88.30
7516;DHT22;3799;47.184;8.538;2023-04-12T10:05:17;16.90;87.90
7516;DHT22;3799;47.184;8.538;2023-04-12T10:07:46;17.00;86.70
7516;DHT22;3799;47.184;8.538;2023-04-12T10:10:15;17.20;84.60
7516;DHT22;3799;47.184;8.538;2023-04-12T10:12:45;17.20;81.20
7516;DHT22;3799;47.184;8.538;2023-04-12T10:15:14;17.50;77.90
7516;DHT22;3799;47.184;8.538;2023-04-12T10:17:46;17.40;76.00
7516;DHT22;3799;47.184;8.538;2023-04-12T10:20:16;17.60;76.80
7516;DHT22;3799;47.184;8.538;2023-04-12T10:22:48;17.50;75.60
7516;DHT22;3799;47.184;8.538;2023-04-12T10:25:21;17.60;75.30
7516;DHT22;3799;47.184;8.538;2023-04-12T10:27:48;18.00;74.00
7516;DHT22;3799;47.184;8.538;2023-04-12T10:30:31;18.20;69.30
7516;DHT22;3799;47.184;8.538;2023-04-12T10:35:47;18.40;65.50
7516;DHT22;3799;47.184;8.538;2023-04-12T10:38:15;18.00;61.30
7516;DHT22;3799;47.184;8.538;2023-04-12T10:41:05;17.90;60.10
7516;DHT22;3799;47.184;8.538;2023-04-12T10:43:33;18.00;60.80
7516;DHT22;3799;47.184;8.538;2023-04-12T10:46:02;18.00;59.90
7516;DHT22;3799;47.184;8.538;2023-04-12T10:48:36;17.90;61.10
7516;DHT22;3799;47.184;8.538;2023-04-12T10:51:23;17.90;61.60
7516;DHT22;3799;47.184;8.538;2023-04-12T10:56:47;18.20;60.10
7516;DHT22;3799;47.184;8.538;2023-04-12T10:59:15;18.40;59.70
7516;DHT22;3799;47.184;8.538;2023-04-12T11:02:09;18.60;59.30
7516;DHT22;3799;47.184;8.538;2023-04-12T11:04:37;18.80;59.00
7516;DHT22;3799;47.184;8.538;2023-04-12T11:07:07;19.00;59.00
7516;DHT22;3799;47.184;8.538;2023-04-12T11:09:43;18.90;58.40
7516;DHT22;3799;47.184;8.538;2023-04-12T11:12:12;19.20;57.60
7516;DHT22;3799;47.184;8.538;2023-04-12T11:14:46;19.30;56.80
7516;DHT22;3799;47.184;8.538;2023-04-12T11:19:52;19.40;55.90
7516;DHT22;3799;47.184;8.538;2023-04-12T11:22:25;19.40;56.20
7516;DHT22;3799;47.184;8.538;2023-04-12T11:24:58;19.80;55.60
7516;DHT22;3799;47.184;8.538;2023-04-12T11:27:27;19.40;55.60
7516;DHT22;3799;47.184;8.538;2023-04-12T11:29:58;19.10;55.20
7516;DHT22;3799;47.184;8.538;2023-04-12T11:32:27;19.10;54.90
7516;DHT22;3799;47.184;8.538;2023-04-12T11:34:56;19.00;54.80
7516;DHT22;3799;47.184;8.538;2023-04-12T11:37:24;18.90;55.20
7516;DHT22;3799;47.184;8.538;2023-04-12T11:39:56;19.30;56.10
7516;DHT22;3799;47.184;8.538;2023-04-12T11:42:25;19.20;56.30
7516;DHT22;3799;47.184;8.538;2023-04-12T11:44:53;19.50;57.10
7516;DHT22;3799;47.184;8.538;2023-04-12T11:47:27;19.50;57.90
7516;DHT22;3799;47.184;8.538;2023-04-12T11:49:57;19.60;57.40
7516;DHT22;3799;47.184;8.538;2023-04-12T11:52:32;19.70;56.50
7516;DHT22;3799;47.184;8.538;2023-04-12T11:55:02;19.60;56.90
7516;DHT22;3799;47.184;8.538;2023-04-12T11:57:31;19.50;57.20
7516;DHT22;3799;47.184;8.538;2023-04-12T12:00:02;19.30;56.90
7516;DHT22;3799;47.184;8.538;2023-04-12T12:02:33;19.30;56.80
7516;DHT22;3799;47.184;8.538;2023-04-12T12:05:15;19.10;56.70
7516;DHT22;3799;47.184;8.538;2023-04-12T12:07:43;19.00;56.80
7516;DHT22;3799;47.184;8.538;2023-04-12T12:10:10;18.80;57.00
7516;DHT22;3799;47.184;8.538;2023-04-12T12:12:46;18.80;57.70
7516;DHT22;3799;47.184;8.538;2023-04-12T12:15:15;18.80;58.10
7516;DHT22;3799;47.184;8.538;2023-04-12T12:17:44;18.60;58.00
7516;DHT22;3799;47.184;8.538;2023-04-12T12:20:20;18.30;58.10
7516;DHT22;3799;47.184;8.538;2023-04-12T12:22:50;18.20;58.60
7516;DHT22;3799;47.184;8.538;2023-04-12T12:25:18;18.10;58.80
7516;DHT22;3799;47.184;8.538;2023-04-12T12:27:45;18.10;57.90
7516;DHT22;3799;47.184;8.538;2023-04-12T12:30:17;17.90;57.10
7516;DHT22;3799;47.184;8.538;2023-04-12T12:32:49;17.90;56.90
7516;DHT22;3799;47.184;8.538;2023-04-12T12:35:17;17.90;55.60
7516;DHT22;3799;47.184;8.538;2023-04-12T12:37:53;17.60;55.60
7516;DHT22;3799;47.184;8.538;2023-04-12T12:40:29;17.40;56.00
7516;DHT22;3799;47.184;8.538;2023-04-12T12:43:00;17.10;56.10
7516;DHT22;3799;47.184;8.538;2023-04-12T12:45:31;17.20;56.40
7516;DHT22;3799;47.184;8.538;2023-04-12T12:48:00;17.00;56.40
7516;DHT22;3799;47.184;8.538;2023-04-12T12:50:33;16.80;56.00
7516;DHT22;3799;47.184;8.538;2023-04-12T12:53:01;16.80;56.00
7516;DHT22;3799;47.184;8.538;2023-04-12T12:55:29;16.90;56.70
7516;DHT22;3799;47.184;8.538;2023-04-12T12:57:58;16.70;57.60
7516;DHT22;3799;47.184;8.538;2023-04-12T13:00:35;16.50;57.90
7516;DHT22;3799;47.184;8.538;2023-04-12T13:03:03;16.50;58.50
7516;DHT22;3799;47.184;8.538;2023-04-12T13:05:31;16.40;57.80
7516;DHT22;3799;47.184;8.538;2023-04-12T13:08:00;16.50;57.90
7516;DHT22;3799;47.184;8.538;2023-04-12T13:10:30;15.90;57.80
7516;DHT22;3799;47.184;8.538;2023-04-12T13:12:58;16.10;58.70
7516;DHT22;3799;47.184;8.538;2023-04-12T13:15:25;16.00;58.20
7516;DHT22;3799;47.184;8.538;2023-04-12T13:17:53;16.10;59.00
7516;DHT22;3799;47.184;8.538;2023-04-12T13:20:21;15.70;59.20
7516;DHT22;3799;47.184;8.538;2023-04-12T13:22:49;15.80;59.60
7516;DHT22;3799;47.184;8.538;2023-04-12T13:25:20;15.80;59.30
7516;DHT22;3799;47.184;8.538;2023-04-12T13:27:48;15.40;59.20
7516;DHT22;3799;47.184;8.538;2023-04-12T13:30:18;15.50;59.30
7516;DHT22;3799;47.184;8.538;2023-04-12T13:32:46;15.70;59.40
7516;DHT22;3799;47.184;8.538;2023-04-12T13:35:13;15.70;58.70
7516;DHT22;3799;47.184;8.538;2023-04-12T13:37:41;15.40;58.20
7516;DHT22;3799;47.184;8.538;2023-04-12T13:40:09;15.80;58.70
7516;DHT22;3799;47.184;8.538;2023-04-12T13:42:36;15.70;58.50
7516;DHT22;3799;47.184;8.538;2023-04-12T13:45:04;15.60;58.70
7516;DHT22;3799;47.184;8.538;2023-04-12T13:47:33;15.80;59.30
7516;DHT22;3799;47.184;8.538;2023-04-12T13:50:01;15.80;59.40
7516;DHT22;3799;47.184;8.538;2023-04-12T13:52:29;15.90;58.00
7516;DHT22;3799;47.184;8.538;2023-04-12T13:54:56;15.80;57.30
7516;DHT22;3799;47.184;8.538;2023-04-12T13:57:25;16.10;57.40
7516;DHT22;3799;47.184;8.538;2023-04-12T13:59:52;16.10;57.80
7516;DHT22;3799;47.184;8.538;2023-04-12T14:02:19;16.00;56.70
7516;DHT22;3799;47.184;8.538;2023-04-12T14:04:51;16.20;57.30
7516;DHT22;3799;47.184;8.538;2023-04-12T14:07:19;16.10;57.30
7516;DHT22;3799;47.184;8.538;2023-04-12T14:09:46;16.10;57.60
7516;DHT22;3799;47.184;8.538;2023-04-12T14:12:14;15.90;57.20
7516;DHT22;3799;47.184;8.538;2023-04-12T14:14:42;15.70;57.40
7516;DHT22;3799;47.184;8.538;2023-04-12T14:17:09;15.70;57.40
7516;DHT22;3799;47.184;8.538;2023-04-12T14:19:37;15.80;57.70
7516;DHT22;3799;47.184;8.538;2023-04-12T14:22:05;15.80;57.80
7516;DHT22;3799;47.184;8.538;2023-04-12T14:24:32;15.70;57.70
7516;DHT22;3799;47.184;8.538;2023-04-12T14:26:59;15.70;57.80
7516;DHT22;3799;47.184;8.538;2023-04-12T14:29:28;15.70;57.80
7516;DHT22;3799;47.184;8.538;2023-04-12T14:31:55;15.40;57.90
7516;DHT22;3799;47.184;8.538;2023-04-12T14:34:22;15.50;58.60
7516;DHT22;3799;47.184;8.538;2023-04-12T14:36:50;15.30;59.00
7516;DHT22;3799;47.184;8.538;2023-04-12T14:39:17;15.40;59.50
7516;DHT22;3799;47.184;8.538;2023-04-12T14:41:45;15.20;59.60
7516;DHT22;3799;47.184;8.538;2023-04-12T14:44:14;15.30;59.90
7516;DHT22;3799;47.184;8.538;2023-04-12T14:46:45;15.40;60.20
7516;DHT22;3799;47.184;8.538;2023-04-12T14:49:12;15.20;60.50
7516;DHT22;3799;47.184;8.538;2023-04-12T14:51:40;15.10;61.20
7516;DHT22;3799;47.184;8.538;2023-04-12T14:54:07;15.30;62.00
7516;DHT22;3799;47.184;8.538;2023-04-12T14:56:35;15.30;62.00
7516;DHT22;3799;47.184;8.538;2023-04-12T14:59:10;15.00;62.10
7516;DHT22;3799;47.184;8.538;2023-04-12T15:01:38;15.10;63.10
7516;DHT22;3799;47.184;8.538;2023-04-12T15:04:06;14.90;62.80
7516;DHT22;3799;47.184;8.538;2023-04-12T15:06:36;14.70;63.30
7516;DHT22;3799;47.184;8.538;2023-04-12T15:09:08;14.90;64.10
7516;DHT22;3799;47.184;8.538;2023-04-12T15:11:38;15.10;65.50
7516;DHT22;3799;47.184;8.538;2023-04-12T15:14:13;14.80;66.00
7516;DHT22;3799;47.184;8.538;2023-04-12T15:16:47;14.70;67.00
7516;DHT22;3799;47.184;8.538;2023-04-12T15:19:17;14.80;68.20
7516;DHT22;3799;47.184;8.538;2023-04-12T15:21:53;14.60;69.80
7516;DHT22;3799;47.184;8.538;2023-04-12T15:24:23;14.50;70.90
7516;DHT22;3799;47.184;8.538;2023-04-12T15:26:51;14.40;72.00
7516;DHT22;3799;47.184;8.538;2023-04-12T15:29:19;14.10;73.70
7516;DHT22;3799;47.184;8.538;2023-04-12T15:31:48;14.20;75.60
7516;DHT22;3799;47.184;8.538;2023-04-12T15:34:19;14.10;76.50
7516;DHT22;3799;47.184;8.538;2023-04-12T15:36:49;14.30;79.50
7516;DHT22;3799;47.184;8.538;2023-04-12T15:39:17;13.80;81.40
7516;DHT22;3799;47.184;8.538;2023-04-12T15:41:45;14.00;86.80
7516;DHT22;3799;47.184;8.538;2023-04-12T15:44:13;13.90;89.80
7516;DHT22;3799;47.184;8.538;2023-04-12T15:46:40;13.70;91.10
7516;DHT22;3799;47.184;8.538;2023-04-12T15:49:09;13.90;93.50
7516;DHT22;3799;47.184;8.538;2023-04-12T15:51:39;13.80;94.20
7516;DHT22;3799;47.184;8.538;2023-04-12T15:54:07;13.70;96.30
7516;DHT22;3799;47.184;8.538;2023-04-12T15:56:34;13.90;99.20
7516;DHT22;3799;47.184;8.538;2023-04-12T15:59:03;13.80;99.90
7516;DHT22;3799;47.184;8.538;2023-04-12T16:01:31;13.60;99.90
7516;DHT22;3799;47.184;8.538;2023-04-12T16:04:01;13.90;99.90
7516;DHT22;3799;47.184;8.538;2023-04-12T16:06:30;13.70;99.90
7516;DHT22;3799;47.184;8.538;2023-04-12T16:09:01;13.80;99.90
7516;DHT22;3799;47.184;8.538;2023-04-12T16:11:28;13.60;99.90
7516;DHT22;3799;47.184;8.538;2023-04-12T16:13:56;13.50;99.90
7516;DHT22;3799;47.184;8.538;2023-04-12T16:16:26;13.20;99.90
7516;DHT22;3799;47.184;8.538;2023-04-12T16:18:54;13.40;99.90
7516;DHT22;3799;47.184;8.538;2023-04-12T16:21:22;13.20;99.90
7516;DHT22;3799;47.184;8.538;2023-04-12T16:23:50;13.10;99.90
7516;DHT22;3799;47.184;8.538;2023-04-12T16:26:20;12.80;99.90
7516;DHT22;3799;47.184;8.538;2023-04-12T16:28:49;13.10;99.90
7516;DHT22;3799;47.184;8.538;2023-04-12T16:31:18;12.70;99.90
7516;DHT22;3799;47.184;8.538;2023-04-12T16:33:50;12.70;99.90
7516;DHT22;3799;47.184;8.538;2023-04-12T16:36:18;12.60;99.90
7516;DHT22;3799;47.184;8.538;2023-04-12T16:38:45;12.90;99.90
7516;DHT22;3799;47.184;8.538;2023-04-12T16:41:14;12.80;99.90
7516;DHT22;3799;47.184;8.538;2023-04-12T16:43:43;12.60;99.90
7516;DHT22;3799;47.184;8.538;2023-04-12T16:46:11;12.60;99.90